Time;durP1;ratioP1;P1;durP2;ratioP2;P2;SDS_P1;SDS_P2;PMS_P1;PMS_P2;Temp;Humidity;BMP_temperature;BMP_pressure;BME280_temperature;BME280_humidity;BME280_pressure;Samples;Min_cycle;Max_cycle;Signal;HPM_P1;HPM_P2
2022/04/23 00:01:10;;;;;;;9.13;6.70;;;;;;;13.32;65.23;100802.59;10480274;28;20251;-61
2022/04/23 00:06:32;;;;;;;9.43;6.95;;;;;;;13.21;65.62;100797.34;10446957;28;20049;-62
2022/04/23 00:11:55;;;;;;;14.20;6.63;;;;;;;13.10;65.93;100792.06;10479230;28;20072;-61
2022/04/23 00:17:18;;;;;;;11.30;7.10;;;;;;;13.07;65.70;100800.19;10479585;28;20048;-61
2022/04/23 00:22:40;;;;;;;12.38;6.70;;;;;;;13.04;65.94;100795.16;10475356;28;20045;-61
2022/04/23 00:28:02;;;;;;;12.32;6.90;;;;;;;13.06;66.24;100795.88;10494034;28;20059;-61
2022/04/23 00:33:24;;;;;;;10.75;6.53;;;;;;;13.05;66.78;100788.97;10472748;28;20037;-61
2022/04/23 00:38:49;;;;;;;11.85;6.75;;;;;;;13.01;66.78;100782.31;10485304;28;20064;-60
2022/04/23 00:44:11;;;;;;;10.65;6.25;;;;;;;12.96;66.51;100784.41;10493451;28;20060;-60
2022/04/23 00:49:33;;;;;;;14.00;6.82;;;;;;;12.89;66.87;100778.00;10477402;28;20052;-59
2022/04/23 00:54:56;;;;;;;12.07;7.28;;;;;;;12.82;67.04;100776.72;10492282;28;20045;-61
2022/04/23 01:00:18;;;;;;;11.05;6.20;;;;;;;12.76;66.98;100779.81;10491937;28;20052;-61
2022/04/23 01:05:44;;;;;;;11.68;7.03;;;;;;;12.79;68.00;100771.75;10473649;28;20056;-61
2022/04/23 01:11:06;;;;;;;9.63;6.75;;;;;;;12.79;66.98;100776.13;10491980;28;20531;-61
2022/04/23 01:16:28;;;;;;;19.75;7.25;;;;;;;12.76;66.81;100766.75;10476718;28;20048;-61
2022/04/23 01:21:50;;;;;;;12.13;7.10;;;;;;;12.74;66.66;100776.47;10464535;28;20045;-61
2022/04/23 01:27:11;;;;;;;10.60;7.03;;;;;;;12.71;67.01;100775.88;10474599;28;20067;-61
2022/04/23 01:32:33;;;;;;;11.00;6.80;;;;;;;12.65;66.41;100778.94;10471164;28;20512;-61
2022/04/23 01:37:55;;;;;;;8.63;6.60;;;;;;;12.59;66.72;100777.63;10476919;28;20067;-60
2022/04/23 01:43:17;;;;;;;9.77;6.80;;;;;;;12.49;66.29;100781.88;10465552;28;20056;-61
2022/04/23 01:48:39;;;;;;;8.82;6.85;;;;;;;12.45;65.79;100781.34;10468696;28;20071;-61
2022/04/23 01:54:00;;;;;;;12.02;7.00;;;;;;;12.42;66.95;100778.94;10490350;28;20059;-61
2022/04/23 01:59:22;;;;;;;9.80;6.72;;;;;;;12.31;66.57;100773.69;10481091;28;20048;-61
2022/04/23 02:04:44;;;;;;;9.43;6.90;;;;;;;12.27;66.26;100787.91;10476362;28;20056;-61
2022/04/23 02:10:12;;;;;;;9.50;7.28;;;;;;;12.17;67.31;100792.94;10473241;28;20060;-61
2022/04/23 02:15:33;;;;;;;9.07;7.20;;;;;;;12.11;67.11;100792.56;10469024;28;20520;-61
2022/04/23 02:20:55;;;;;;;11.82;7.30;;;;;;;12.06;66.56;100784.22;10475345;28;20048;-62
2022/04/23 02:26:17;;;;;;;9.13;6.63;;;;;;;12.02;66.13;100794.03;10494678;28;20524;-60
2022/04/23 02:31:38;;;;;;;10.02;7.00;;;;;;;12.01;65.89;100781.09;10470246;28;20453;-61
2022/04/23 02:37:00;;;;;;;12.60;7.47;;;;;;;11.96;66.13;100788.41;10487075;28;20145;-61
2022/04/23 02:42:22;;;;;;;10.85;7.35;;;;;;;11.89;65.61;100785.41;10485719;28;20059;-61
2022/04/23 02:47:46;;;;;;;10.45;7.07;;;;;;;11.81;66.74;100799.94;10472319;28;20048;-61
2022/04/23 02:53:08;;;;;;;9.55;7.32;;;;;;;11.74;66.13;100796.09;10473353;28;20639;-61
2022/04/23 02:58:30;;;;;;;11.52;7.07;;;;;;;11.72;65.83;100796.19;10474225;28;20053;-61
2022/04/23 03:03:54;;;;;;;9.13;7.13;;;;;;;11.68;66.23;100794.75;10489615;28;20095;-61
2022/04/23 03:09:16;;;;;;;10.07;7.40;;;;;;;11.62;66.02;100799.56;10474722;28;20389;-61
2022/04/23 03:14:37;;;;;;;8.85;7.18;;;;;;;11.58;66.00;100798.13;10477895;28;20046;-60
2022/04/23 03:20:01;;;;;;;10.10;7.18;;;;;;;11.49;66.59;100789.09;10485182;28;20175;-61
2022/04/23 03:25:23;;;;;;;9.25;6.68;;;;;;;11.43;66.02;100793.91;10466653;28;20048;-61
2022/04/23 03:30:44;;;;;;;11.98;7.82;;;;;;;11.37;67.22;100791.72;10472849;28;20045;-61
2022/04/23 03:36:06;;;;;;;11.77;7.38;;;;;;;11.30;66.91;100797.44;10474061;28;20179;-61
2022/04/23 03:41:28;;;;;;;9.15;7.45;;;;;;;11.31;66.37;100799.97;10466347;28;20543;-61
2022/04/23 03:46:49;;;;;;;9.18;7.38;;;;;;;11.25;66.97;100799.56;10488116;28;20519;-61
2022/04/23 03:52:16;;;;;;;11.18;7.30;;;;;;;11.21;67.50;100798.06;10475861;28;20485;-61
2022/04/23 03:57:45;;;;;;;8.38;6.97;;;;;;;11.17;68.36;100787.03;10467369;28;20048;-62
2022/04/23 04:03:07;;;;;;;9.60;7.07;;;;;;;11.10;67.03;100801.41;10478192;28;20413;-61
2022/04/23 04:08:29;;;;;;;14.95;6.90;;;;;;;10.97;67.40;100805.78;10493823;28;20083;-61
2022/04/23 04:13:51;;;;;;;13.90;7.75;;;;;;;10.95;67.73;100807.63;10479584;28;20049;-61
2022/04/23 04:19:16;;;;;;;10.52;6.97;;;;;;;10.92;68.47;100812.22;10512727;28;20048;-61
2022/04/23 04:24:38;;;;;;;11.40;7.72;;;;;;;10.85;68.77;100814.41;10481261;28;20049;-61
2022/04/23 04:30:06;;;;;;;9.13;6.88;;;;;;;10.84;68.64;100825.78;10480113;28;20066;-63
2022/04/23 04:35:28;;;;;;;11.45;7.18;;;;;;;10.75;68.23;100818.56;10474149;28;20045;-63
2022/04/23 04:40:50;;;;;;;10.52;7.35;;;;;;;10.72;68.47;100820.50;10456568;28;20052;-62
2022/04/23 04:46:11;;;;;;;11.05;6.90;;;;;;;10.74;67.84;100818.66;10480279;28;20060;-62
2022/04/23 04:51:36;;;;;;;11.15;7.53;;;;;;;10.73;67.98;100823.03;10489709;28;20068;-62
2022/04/23 04:56:58;;;;;;;10.55;6.90;;;;;;;10.72;69.40;100820.50;10493102;28;20044;-62
2022/04/23 05:02:19;;;;;;;10.48;7.20;;;;;;;10.70;68.50;100832.81;10473424;28;20048;-60
2022/04/23 05:07:41;;;;;;;10.38;6.07;;;;;;;10.72;67.34;100831.81;10478019;28;20577;-60
2022/04/23 05:13:03;;;;;;;9.35;6.88;;;;;;;10.65;67.98;100835.72;10477229;28;20048;-62
2022/04/23 05:18:25;;;;;;;9.90;6.78;;;;;;;10.70;68.07;100843.25;10475419;28;20041;-59
2022/04/23 05:23:46;;;;;;;10.05;6.40;;;;;;;10.70;69.31;100849.31;10478169;28;20528;-64
2022/04/23 05:29:08;;;;;;;7.80;6.22;;;;;;;10.72;67.95;100857.00;10476514;28;20044;-62
2022/04/23 05:34:31;;;;;;;10.10;6.60;;;;;;;10.79;69.08;100858.31;10470868;28;20048;-61
2022/04/23 05:39:53;;;;;;;10.07;6.55;;;;;;;10.80;69.52;100860.81;10477723;28;20048;-60
2022/04/23 05:45:14;;;;;;;9.27;6.60;;;;;;;10.80;69.36;100859.97;10483932;28;20474;-60
2022/04/23 05:50:36;;;;;;;9.88;6.88;;;;;;;10.81;68.85;100862.47;10478558;28;20512;-60
2022/04/23 05:55:58;;;;;;;9.80;6.75;;;;;;;10.86;70.69;100865.63;10481568;28;20067;-62
2022/04/23 06:01:20;;;;;;;10.25;7.40;;;;;;;10.92;69.18;100864.41;10456981;28;20051;-62
2022/04/23 06:06:41;;;;;;;9.40;6.72;;;;;;;11.01;69.49;100869.84;10458138;28;20491;-61
2022/04/23 06:12:03;;;;;;;9.77;6.47;;;;;;;11.10;68.20;100871.84;10438475;28;20047;-61
2022/04/23 06:17:27;;;;;;;11.13;7.18;;;;;;;11.22;68.24;100873.63;10446396;28;20402;-61
2022/04/23 06:22:48;;;;;;;8.98;6.68;;;;;;;11.37;67.63;100867.41;10462090;28;20044;-60
2022/04/23 06:28:10;;;;;;;11.75;6.93;;;;;;;11.54;68.00;100874.97;10471764;28;20087;-61
2022/04/23 06:33:32;;;;;;;9.35;6.32;;;;;;;11.68;67.38;100872.25;10479563;28;20493;-62
2022/04/23 06:38:53;;;;;;;10.23;7.65;;;;;;;11.83;65.93;100873.81;10470267;28;20055;-63
2022/04/23 06:44:15;;;;;;;16.80;7.30;;;;;;;11.98;67.79;100877.97;10475103;28;20056;-61
2022/04/23 06:49:37;;;;;;;11.55;7.13;;;;;;;12.17;65.50;100875.75;10457880;28;20067;-62
2022/04/23 06:54:58;;;;;;;7.95;6.13;;;;;;;12.37;65.33;100875.19;10474446;28;20409;-62
2022/04/23 07:00:23;;;;;;;11.10;6.93;;;;;;;12.57;64.27;100876.25;10471232;28;20059;-62
2022/04/23 07:05:52;;;;;;;9.73;7.25;;;;;;;12.62;64.84;100882.00;10474368;28;20082;-62
2022/04/23 07:11:14;;;;;;;12.50;7.70;;;;;;;12.59;64.53;100879.59;10466545;28;20045;-61
2022/04/23 07:16:35;;;;;;;14.60;7.43;;;;;;;12.75;63.84;100880.16;10459670;28;20071;-62
2022/04/23 07:21:57;;;;;;;9.20;7.82;;;;;;;12.86;64.92;100867.13;10457455;28;20080;-62
2022/04/23 07:27:19;;;;;;;12.38;7.93;;;;;;;12.92;63.96;100864.13;10455117;28;20577;-62
2022/04/23 07:32:41;;;;;;;11.63;8.30;;;;;;;12.94;63.93;100867.47;10491858;28;20410;-65
2022/04/23 07:38:19;;;;;;;10.80;8.18;;;;;;;13.05;65.36;100862.25;10478361;28;20048;-62
2022/04/23 07:43:41;;;;;;;9.63;8.10;;;;;;;13.14;64.16;100864.19;10476864;28;20052;-60
2022/04/23 07:49:03;;;;;;;10.85;8.30;;;;;;;13.25;63.43;100861.59;10478265;28;20041;-61
2022/04/23 07:54:25;;;;;;;10.82;8.23;;;;;;;13.33;63.70;100867.09;10495324;28;20071;-63
2022/04/23 07:59:46;;;;;;;11.98;8.82;;;;;;;13.38;63.53;100858.91;10492938;28;20067;-66
2022/04/23 08:05:12;;;;;;;13.43;8.30;;;;;;;13.40;62.86;100863.06;10473763;28;20378;-62
2022/04/23 08:10:34;;;;;;;10.75;8.18;;;;;;;13.49;62.68;100852.72;10457928;28;20099;-61
2022/04/23 08:15:55;;;;;;;13.57;8.43;;;;;;;13.58;62.79;100851.19;10453544;28;20048;-63
2022/04/23 08:21:17;;;;;;;13.52;9.25;;;;;;;13.74;62.33;100846.44;10441880;28;20095;-62
2022/04/23 08:26:39;;;;;;;12.35;9.55;;;;;;;13.83;61.48;100841.34;10448134;28;20058;-62
2022/04/23 08:32:00;;;;;;;11.07;8.32;;;;;;;13.96;61.06;100838.59;10451985;28;20505;-63
2022/04/23 08:37:22;;;;;;;12.60;9.30;;;;;;;14.11;60.72;100842.66;10470873;28;20056;-61
2022/04/23 08:42:44;;;;;;;12.82;8.75;;;;;;;14.21;59.83;100830.50;10480880;28;20052;-63
2022/04/23 08:48:09;;;;;;;15.98;8.27;;;;;;;14.31;58.98;100823.56;10475290;28;20483;-62
2022/04/23 08:53:34;;;;;;;11.25;8.13;;;;;;;14.40;58.53;100828.91;10486063;28;20048;-63
2022/04/23 08:58:56;;;;;;;9.65;7.35;;;;;;;14.50;58.08;100825.44;10469127;28;20098;-63
2022/04/23 09:04:19;;;;;;;11.80;6.97;;;;;;;14.53;57.70;100827.81;10479128;28;20056;-64
2022/04/23 09:09:48;;;;;;;12.27;7.22;;;;;;;14.61;57.00;100828.00;10470746;28;20053;-61
2022/04/23 09:26:31;;;;;;;11.52;5.18;;;;;;;14.92;57.25;100821.94;10486512;28;20155;-65
2022/04/23 09:32:08;;;;;;;9.52;5.72;;;;;;;14.96;54.01;100804.97;10477936;28;20049;-62
2022/04/23 09:38:11;;;;;;;11.02;5.13;;;;;;;15.09;56.92;100810.88;10478142;28;20135;-62
2022/04/23 09:43:14;;;;;;;17.92;4.68;;;;;;;15.19;56.52;100801.25;10470854;28;20044;-63
2022/04/23 09:48:40;;;;;;;9.80;5.30;;;;;;;15.26;56.08;100805.06;10475203;28;20060;-62
2022/04/23 09:54:03;;;;;;;5.78;4.85;;;;;;;15.31;55.05;100784.47;10487813;28;20076;-62
2022/04/23 09:59:25;;;;;;;7.15;4.80;;;;;;;15.51;54.97;100797.59;10469802;28;20175;-63
2022/04/23 10:04:46;;;;;;;4.93;4.00;;;;;;;15.58;55.01;100782.13;10452402;28;20053;-62
2022/04/23 10:10:12;;;;;;;8.88;3.53;;;;;;;15.73;55.11;100791.31;10488609;28;20166;-61
2022/04/23 10:15:34;;;;;;;6.13;3.95;;;;;;;15.78;55.21;100776.00;10461133;28;20041;-62
2022/04/23 10:21:00;;;;;;;6.60;3.88;;;;;;;15.92;54.37;100786.16;10490172;28;20054;-62
2022/04/23 10:26:43;;;;;;;7.50;4.18;;;;;;;16.07;49.87;100774.28;10470315;28;20057;-64
2022/04/23 10:32:15;;;;;;;5.03;3.85;;;;;;;16.16;49.42;100774.31;10459300;28;20059;-61
2022/04/23 10:37:40;;;;;;;7.00;3.80;;;;;;;16.29;51.48;100763.56;10489307;28;20051;-63
2022/04/23 10:43:10;;;;;;;6.53;3.90;;;;;;;16.40;49.41;100773.97;10470163;28;20213;-62
2022/04/23 10:48:33;;;;;;;6.00;3.20;;;;;;;16.52;53.11;100771.91;10475103;28;20051;-62
2022/04/23 10:53:55;;;;;;;7.32;3.35;;;;;;;16.67;53.42;100775.78;10485965;28;20041;-63
2022/04/23 10:59:40;;;;;;;6.95;3.50;;;;;;;16.86;45.62;100754.72;10473920;28;20817;-63
2022/04/23 11:16:31;;;;;;;10.75;2.85;;;;;;;17.32;52.74;100748.69;10446092;28;20052;-61
2022/04/23 11:21:52;;;;;;;5.55;2.30;;;;;;;17.49;52.56;100744.34;10455384;28;20127;-63
2022/04/23 11:27:25;;;;;;;5.97;3.10;;;;;;;17.68;44.24;100735.50;10457103;28;20047;-63
2022/04/23 11:32:46;;;;;;;5.35;2.78;;;;;;;17.82;51.75;100737.66;10466734;28;20083;-63
2022/04/23 11:38:19;;;;;;;5.07;2.42;;;;;;;18.05;45.14;100730.97;10474647;28;20520;-63
2022/04/23 11:43:41;;;;;;;2.92;2.10;;;;;;;18.33;52.01;100741.38;10486396;28;20052;-62
2022/04/23 11:49:02;;;;;;;4.63;2.50;;;;;;;18.47;51.54;100717.94;10477673;28;20513;-59
2022/04/23 11:54:35;;;;;;;2.85;2.28;;;;;;;18.64;44.16;100718.91;10458132;28;20044;-59
2022/04/23 12:00:03;;;;;;;7.35;2.60;;;;;;;18.71;46.63;100725.22;10454841;28;20465;-62
2022/04/23 12:05:32;;;;;;;4.85;2.42;;;;;;;18.86;41.48;100716.59;10481479;28;20505;-60
2022/04/23 12:10:54;;;;;;;2.83;2.45;;;;;;;19.08;50.07;100716.09;10477268;28;20048;-61
2022/04/23 12:16:39;;;;;;;3.55;1.90;;;;;;;19.14;42.49;100707.56;10479933;28;20052;-62
2022/04/23 12:22:01;;;;;;;5.45;2.35;;;;;;;19.31;51.25;100709.34;10480969;28;20045;-65
2022/04/23 12:27:25;;;;;;;2.97;2.33;;;;;;;19.45;51.84;100711.38;10471940;28;20052;-61
2022/04/23 12:44:19;;;;;;;3.63;2.25;;;;;;;19.32;48.86;100684.56;10478506;28;20050;-63
2022/04/23 12:49:54;;;;;;;3.28;2.05;;;;;;;19.33;49.71;100675.63;10474693;28;20136;-61
2022/04/23 12:55:30;;;;;;;4.43;2.17;;;;;;;19.46;45.29;100665.44;10492940;28;20052;-59
2022/04/23 13:00:52;;;;;;;3.50;2.00;;;;;;;19.71;53.99;100665.38;10471592;28;20040;-59
2022/04/23 13:11:54;;;;;;;5.63;2.10;;;;;;;20.14;53.96;100651.09;10503393;28;20132;-61
2022/04/23 13:17:16;;;;;;;2.72;1.83;;;;;;;20.32;54.99;100643.84;10504239;28;20412;-58
2022/04/23 13:22:40;;;;;;;2.38;2.03;;;;;;;20.39;53.80;100641.16;10479089;28;20493;-60
2022/04/23 13:28:07;;;;;;;5.18;1.90;;;;;;;20.40;54.74;100645.47;10469987;28;20060;-59
2022/04/23 13:33:29;;;;;;;2.92;2.20;;;;;;;20.38;54.19;100628.91;10487680;28;20489;-60
2022/04/23 13:38:51;;;;;;;6.25;1.90;;;;;;;20.38;55.47;100623.63;10477998;28;20071;-63
2022/04/23 13:44:14;;;;;;;2.35;1.92;;;;;;;20.51;54.66;100616.03;10475945;28;20612;-62
2022/04/23 13:49:39;;;;;;;2.22;1.85;;;;;;;20.44;44.82;100622.16;10477856;28;20055;-64
2022/04/23 13:55:01;;;;;;;3.90;1.88;;;;;;;20.30;53.15;100614.03;10482861;28;20455;-64
2022/04/23 14:00:23;;;;;;;2.25;1.80;;;;;;;20.18;54.53;100604.78;10483066;28;20049;-61
2022/04/23 14:11:25;;;;;;;2.97;1.70;;;;;;;20.36;50.89;100590.38;10484621;28;20481;-61
2022/04/23 14:16:47;;;;;;;6.95;1.92;;;;;;;20.32;53.89;100580.28;10475765;28;20063;-62
2022/04/23 14:22:09;;;;;;;2.35;1.85;;;;;;;20.49;53.35;100562.38;10471156;28;20064;-63
2022/04/23 14:27:31;;;;;;;5.60;2.88;;;;;;;20.24;53.23;100552.00;10464628;28;20449;-60
2022/04/23 14:32:53;;;;;;;4.20;2.20;;;;;;;20.14;50.25;100545.19;10478031;28;20048;-63
2022/04/23 14:38:14;;;;;;;3.75;2.10;;;;;;;20.05;52.32;100551.50;10466922;28;20147;-60
2022/04/23 14:43:36;;;;;;;2.35;1.90;;;;;;;19.99;48.66;100536.28;10482769;28;20052;-65
2022/04/23 14:48:58;;;;;;;2.45;1.90;;;;;;;20.06;52.15;100542.56;10475882;28;20063;-63
2022/04/23 14:54:19;;;;;;;2.75;2.40;;;;;;;20.08;50.56;100544.06;10469741;28;20685;-61
2022/04/23 14:59:42;;;;;;;6.75;2.00;;;;;;;20.13;47.43;100527.66;10461742;28;20132;-65
2022/04/23 15:05:04;;;;;;;5.70;2.60;;;;;;;20.09;50.52;100527.19;10470811;28;20060;-61
2022/04/23 15:10:25;;;;;;;1.80;1.70;;;;;;;20.15;49.90;100525.69;10466755;28;20052;-62
2022/04/23 15:15:48;;;;;;;3.33;2.10;;;;;;;20.00;49.79;100511.47;10465259;28;20049;-63
2022/04/23 15:21:10;;;;;;;2.30;2.10;;;;;;;20.41;49.71;100522.66;10467452;28;20086;-62
2022/04/23 15:26:32;;;;;;;2.95;2.30;;;;;;;20.60;49.60;100517.00;10460151;28;20500;-62
2022/04/23 15:31:53;;;;;;;2.28;1.88;;;;;;;20.53;51.42;100518.66;10471155;28;20048;-63
2022/04/23 15:37:15;;;;;;;3.40;2.30;;;;;;;20.38;51.46;100505.47;10471175;28;20372;-61
2022/04/23 15:42:37;;;;;;;4.90;2.17;;;;;;;20.42;50.93;100505.78;10479293;28;20053;-64
2022/04/23 15:47:58;;;;;;;2.85;2.25;;;;;;;20.56;51.43;100505.06;10471550;28;20413;-60
2022/04/23 15:53:20;;;;;;;2.70;2.22;;;;;;;20.61;51.23;100501.91;10459297;28;20044;-63
2022/04/23 15:58:42;;;;;;;2.67;2.47;;;;;;;20.65;50.78;100503.22;10472229;28;20060;-64
2022/04/23 16:04:05;;;;;;;5.40;2.33;;;;;;;20.69;50.47;100504.53;10452033;28;20049;-61
2022/04/23 16:09:27;;;;;;;2.72;2.50;;;;;;;20.68;50.92;100498.41;10435891;28;20045;-63
2022/04/23 16:14:50;;;;;;;3.22;2.78;;;;;;;20.52;50.74;100495.00;10496683;28;20049;-61
2022/04/23 16:20:32;;;;;;;4.03;2.78;;;;;;;20.66;51.41;100500.44;10486891;28;20052;-60
2022/04/23 16:25:53;;;;;;;5.28;2.58;;;;;;;20.55;51.43;100498.13;10472248;28;20060;-62
2022/04/23 16:31:15;;;;;;;2.80;2.60;;;;;;;20.68;51.79;100487.81;10453390;28;20587;-64
2022/04/23 16:48:02;;;;;;;3.30;2.50;;;;;;;20.47;48.71;100484.91;10462221;28;20633;-62
2022/04/23 16:53:23;;;;;;;2.60;2.40;;;;;;;20.43;51.12;100488.06;10473225;28;20045;-59
2022/04/23 16:58:45;;;;;;;3.67;2.80;;;;;;;20.29;51.13;100490.56;10460639;28;20055;-66
2022/04/23 17:04:07;;;;;;;4.05;2.58;;;;;;;20.06;52.16;100494.94;10461075;28;20047;-63
2022/04/23 17:09:28;;;;;;;3.60;2.70;;;;;;;19.87;51.50;100497.88;10489615;28;20044;-60
2022/04/23 17:14:50;;;;;;;4.38;2.10;;;;;;;19.75;51.49;100491.28;10451262;28;20041;-60
2022/04/23 17:20:12;;;;;;;2.85;2.63;;;;;;;19.54;51.64;100491.75;10452152;28;20052;-66
2022/04/23 17:25:33;;;;;;;3.55;2.60;;;;;;;19.41;51.29;100493.22;10448267;28;20055;-61
2022/04/23 17:30:55;;;;;;;6.35;2.60;;;;;;;19.31;52.41;100486.41;10459224;28;20123;-64
2022/04/23 17:36:17;;;;;;;3.17;2.95;;;;;;;19.08;51.63;100490.63;10450981;28;20412;-59
2022/04/23 17:41:39;;;;;;;3.83;3.00;;;;;;;18.99;52.37;100491.59;10445082;28;20500;-60
2022/04/23 17:47:01;;;;;;;5.32;3.30;;;;;;;18.86;52.07;100486.75;10462252;28;20414;-63
2022/04/23 17:52:23;;;;;;;4.18;2.95;;;;;;;18.79;52.27;100491.00;10475655;28;20176;-60
2022/04/23 17:57:45;;;;;;;8.57;4.25;;;;;;;18.55;52.16;100503.31;10475032;28;20048;-60
2022/04/23 18:08:47;;;;;;;7.63;5.60;;;;;;;18.08;53.54;100504.63;10442227;28;20056;-61
2022/04/23 18:14:09;;;;;;;6.63;5.30;;;;;;;17.97;53.35;100506.66;10435857;28;20048;-66
2022/04/23 18:19:33;;;;;;;8.80;5.60;;;;;;;17.81;53.66;100511.81;10439523;28;20041;-60
2022/04/23 18:24:54;;;;;;;8.18;6.22;;;;;;;17.65;52.86;100509.03;10473629;28;20041;-60
2022/04/23 18:30:16;;;;;;;7.20;6.10;;;;;;;17.49;53.65;100511.53;10452715;28;20068;-62
2022/04/23 18:35:38;;;;;;;9.27;6.65;;;;;;;17.34;53.73;100522.75;10481768;28;20076;-60
2022/04/23 18:40:59;;;;;;;13.45;7.43;;;;;;;17.23;53.72;100518.47;10455424;28;20052;-61
2022/04/23 18:46:21;;;;;;;12.13;7.35;;;;;;;17.04;54.28;100537.00;10441799;28;20044;-61
2022/04/23 18:51:43;;;;;;;9.05;7.15;;;;;;;16.88;54.42;100534.19;10455133;28;20056;-61
2022/04/23 18:57:05;;;;;;;11.05;7.22;;;;;;;16.77;54.38;100539.66;10435546;28;20040;-61
2022/04/23 19:02:27;;;;;;;10.18;7.07;;;;;;;16.67;54.45;100538.88;10455087;28;20135;-60
2022/04/23 19:07:49;;;;;;;10.20;7.55;;;;;;;16.56;54.94;100546.94;10469660;28;20139;-61
2022/04/23 19:13:11;;;;;;;8.82;7.50;;;;;;;16.39;55.07;100543.38;10441070;28;20041;-62
2022/04/23 19:18:34;;;;;;;9.13;7.60;;;;;;;16.24;54.68;100560.56;10465453;28;20064;-61
2022/04/23 19:29:35;;;;;;;10.50;6.55;;;;;;;15.88;55.29;100558.63;10470763;28;20045;-59
2022/04/23 19:34:57;;;;;;;14.10;6.70;;;;;;;15.70;55.29;100555.88;10452453;28;20037;-61
2022/04/23 19:40:19;;;;;;;8.15;6.68;;;;;;;15.59;55.44;100552.53;10463995;28;20059;-65
2022/04/23 19:45:40;;;;;;;10.02;6.45;;;;;;;15.52;55.00;100561.97;10490158;28;20051;-58
2022/04/23 19:51:02;;;;;;;8.50;6.18;;;;;;;15.34;55.41;100573.28;10479977;28;20489;-60
2022/04/23 19:56:24;;;;;;;7.32;5.85;;;;;;;15.26;55.66;100559.97;10475852;28;20051;-59
2022/04/23 20:01:46;;;;;;;9.90;6.47;;;;;;;15.17;55.56;100566.81;10518770;28;20052;-61
2022/04/23 20:07:08;;;;;;;7.00;5.75;;;;;;;14.98;56.04;100565.94;10492145;28;20045;-61
2022/04/23 20:12:30;;;;;;;12.25;6.22;;;;;;;14.89;56.07;100564.13;10476733;28;20053;-63
2022/04/23 20:17:52;;;;;;;10.25;5.55;;;;;;;14.80;56.03;100568.38;10480950;28;20063;-58
2022/04/23 20:23:14;;;;;;;8.25;5.90;;;;;;;14.68;56.05;100569.41;10479826;28;20079;-62
2022/04/23 20:34:17;;;;;;;8.13;5.63;;;;;;;14.47;56.29;100576.47;10479382;28;20657;-64
2022/04/23 20:39:54;;;;;;;7.25;5.47;;;;;;;14.38;56.44;100572.97;10479043;28;20472;-60
2022/04/23 20:45:15;;;;;;;7.57;5.38;;;;;;;14.22;56.58;100576.03;10494653;28;20048;-65
2022/04/23 20:50:38;;;;;;;7.28;5.50;;;;;;;14.13;56.78;100576.81;10465167;28;20048;-64
2022/04/23 20:56:01;;;;;;;9.75;5.30;;;;;;;14.04;56.55;100571.47;10476863;28;20860;-61
2022/04/23 21:01:24;;;;;;;8.45;5.38;;;;;;;13.93;57.09;100568.91;10484704;28;20072;-60
2022/04/23 21:06:45;;;;;;;8.80;5.20;;;;;;;13.86;56.97;100572.97;10470135;28;20048;-63
2022/04/23 21:12:08;;;;;;;10.60;5.28;;;;;;;13.82;56.93;100572.41;10491638;28;20053;-60
2022/04/23 21:17:29;;;;;;;6.90;4.57;;;;;;;13.74;57.04;100574.81;10477984;28;20389;-60
2022/04/23 21:22:52;;;;;;;5.70;4.80;;;;;;;13.69;57.14;100570.88;10476421;28;20056;-59
2022/04/23 21:28:13;;;;;;;8.13;5.00;;;;;;;13.56;57.51;100565.84;10478318;28;20048;-59
2022/04/23 21:33:35;;;;;;;6.57;4.88;;;;;;;13.48;57.55;100568.22;10487129;28;20048;-62
2022/04/23 21:38:57;;;;;;;5.00;4.30;;;;;;;13.45;57.42;100567.63;10491548;28;20500;-62
2022/04/23 21:50:18;;;;;;;6.95;4.65;;;;;;;13.32;58.18;100577.44;10393913;28;20061;-64
2022/04/23 21:55:39;;;;;;;5.13;4.32;;;;;;;13.24;58.15;100569.38;10477213;28;20052;-60
2022/04/23 22:01:15;;;;;;;8.15;4.60;;;;;;;13.25;58.94;100575.44;10479166;28;20056;-60
2022/04/23 22:06:37;;;;;;;5.53;4.30;;;;;;;13.20;58.28;100567.94;10475421;28;20047;-61
2022/04/23 22:11:59;;;;;;;8.65;4.35;;;;;;;13.17;58.08;100557.72;10489986;28;20055;-60
2022/04/23 22:17:21;;;;;;;8.48;4.22;;;;;;;13.14;57.96;100564.97;10466045;28;20049;-60
2022/04/23 22:22:42;;;;;;;6.10;4.20;;;;;;;13.12;58.47;100567.69;10489156;28;20052;-60
2022/04/23 22:28:04;;;;;;;5.90;4.38;;;;;;;13.03;58.38;100573.66;10475201;28;20045;-60
2022/04/23 22:33:25;;;;;;;6.93;4.55;;;;;;;12.99;58.54;100576.66;10466678;28;20051;-60
2022/04/23 22:38:47;;;;;;;7.65;4.18;;;;;;;12.96;58.41;100575.09;10475350;28;20392;-60
2022/04/23 22:44:08;;;;;;;7.45;4.13;;;;;;;12.93;58.58;100570.13;10474269;28;20501;-60
2022/04/23 22:49:30;;;;;;;6.38;4.70;;;;;;;12.87;58.54;100573.16;10475062;28;20508;-60
2022/04/23 22:54:52;;;;;;;8.73;4.15;;;;;;;12.75;58.87;100576.75;10479868;28;20048;-60
2022/04/23 23:00:14;;;;;;;8.35;4.60;;;;;;;12.67;58.87;100568.63;10470774;28;20052;-58
2022/04/23 23:05:36;;;;;;;5.53;4.25;;;;;;;12.56;59.04;100570.44;10481381;28;20058;-60
2022/04/23 23:11:04;;;;;;;5.35;4.22;;;;;;;12.55;59.21;100559.13;10479867;28;20048;-60
2022/04/23 23:16:26;;;;;;;5.68;4.45;;;;;;;12.50;58.72;100561.28;10473394;28;20123;-60
2022/04/23 23:21:48;;;;;;;6.78;3.92;;;;;;;12.49;58.82;100559.63;10479123;28;20398;-60
2022/04/23 23:27:10;;;;;;;5.88;4.30;;;;;;;12.46;58.30;100558.19;10470777;28;20060;-60
2022/04/23 23:32:32;;;;;;;9.05;4.50;;;;;;;12.39;58.76;100554.34;10467748;28;20049;-60
2022/04/23 23:37:53;;;;;;;6.88;4.13;;;;;;;12.33;58.36;100552.22;10487870;28;20044;-59
2022/04/23 23:43:15;;;;;;;6.05;4.03;;;;;;;12.29;58.70;100566.47;10468449;28;20480;-59
2022/04/23 23:48:36;;;;;;;7.30;4.32;;;;;;;12.26;58.50;100564.94;10474220;28;20056;-59
2022/04/23 23:53:58;;;;;;;6.00;3.95;;;;;;;12.31;58.23;100554.13;10475457;28;20380;-60
2022/04/23 23:59:20;;;;;;;5.35;3.80;;;;;;;12.23;58.10;100556.47;10480431;28;20057;-59
